Time,TemperatureF,DewpointF,PressureIn,WindDirection,WindDirectionDegrees,WindSpeedMPH,WindSpeedGustMPH,Humidity,HourlyPrecipIn,Conditions,Clouds,dailyrainin,SoftwareType,DateUTC
2013-02-25 00:04:00,37.5,32.0,30.21,West,276,0.0,-999.0,80,-99.99,,,0.00,weatherlink.com 1.10,2013-02-25 08:04:00,
2013-02-25 00:19:00,37.2,32.0,30.21,West,276,0.0,-999.0,80,-99.99,,,0.00,weatherlink.com 1.10,2013-02-25 08:19:00,
2013-02-25 00:34:00,36.9,32.0,30.21,West,276,0.0,-999.0,81,-99.99,,,0.00,weatherlink.com 1.10,2013-02-25 08:34:00,
2013-02-25 00:49:00,36.8,32.0,30.21,West,276,0.0,-999.0,81,-99.99,,,0.00,weatherlink.com 1.10,2013-02-25 08:49:00,
2013-02-25 01:04:00,36.3,31.0,30.21,West,276,0.0,-999.0,81,-99.99,,,0.00,weatherlink.com 1.10,2013-02-25 09:04:00,
2013-02-25 01:19:00,35.9,31.0,30.22,West,276,0.0,-999.0,82,-99.99,,,0.00,weatherlink.com 1.10,2013-02-25 09:19:00,
2013-02-25 01:34:00,35.6,31.0,30.22,West,276,0.0,-999.0,83,-99.99,,,0.00,weatherlink.com 1.10,2013-02-25 09:34:00,
2013-02-25 01:49:00,35.3,31.0,30.22,West,276,0.0,-999.0,83,-99.99,,,0.00,weatherlink.com 1.10,2013-02-25 09:49:00,
2013-02-25 02:19:00,34.7,31.0,30.22,West,276,0.0,-999.0,85,-99.99,,,0.00,weatherlink.com 1.10,2013-02-25 10:19:00,
2013-02-25 02:34:00,34.6,31.0,30.22,West,276,0.0,-999.0,85,-99.99,,,0.00,weatherlink.com 1.10,2013-02-25 10:34:00,
2013-02-25 02:49:00,34.4,31.0,30.23,West,276,0.0,-999.0,86,-99.99,,,0.00,weatherlink.com 1.10,2013-02-25 10:49:00,
2013-02-25 03:04:00,34.1,30.0,30.23,West,276,0.0,-999.0,86,-99.99,,,0.00,weatherlink.com 1.10,2013-02-25 11:04:00,
2013-02-25 03:19:00,33.8,30.0,30.23,West,276,0.0,-999.0,86,-99.99,,,0.00,weatherlink.com 1.10,2013-02-25 11:19:00,
2013-02-25 03:34:00,33.8,30.0,30.21,West,276,0.0,-999.0,87,-99.99,,,0.00,weatherlink.com 1.10,2013-02-25 11:34:00,
2013-02-25 03:49:00,33.5,30.0,30.21,West,276,0.0,-999.0,87,-99.99,,,0.00,weatherlink.com 1.10,2013-02-25 11:49:00,
2013-02-25 04:04:00,33.5,30.0,30.21,West,276,0.0,-999.0,87,-99.99,,,0.00,weatherlink.com 1.10,2013-02-25 12:04:00,
2013-02-25 04:19:00,33.4,30.0,30.20,West,276,0.0,-999.0,87,-99.99,,,0.00,weatherlink.com 1.10,2013-02-25 12:19:00,
2013-02-25 04:34:00,33.1,30.0,30.21,West,276,0.0,-999.0,87,-99.99,,,0.00,weatherlink.com 1.10,2013-02-25 12:34:00,
2013-02-25 04:49:00,32.8,30.0,30.21,West,276,0.0,-999.0,88,-99.99,,,0.00,weatherlink.com 1.10,2013-02-25 12:49:00,
2013-02-25 05:05:00,32.7,30.0,30.21,West,276,0.0,-999.0,88,-99.99,,,0.00,weatherlink.com 1.10,2013-02-25 13:05:00,
2013-02-25 05:19:00,33.2,30.0,30.21,West,276,0.0,-999.0,89,-99.99,,,0.00,weatherlink.com 1.10,2013-02-25 13:19:00,
2013-02-25 05:35:00,33.4,31.0,30.22,West,276,0.0,-999.0,89,-99.99,,,0.00,weatherlink.com 1.10,2013-02-25 13:35:00,
2013-02-25 05:50:00,33.5,31.0,30.22,West,276,0.0,-999.0,90,-99.99,,,0.00,weatherlink.com 1.10,2013-02-25 13:50:00,
2013-02-25 06:05:00,33.5,31.0,30.23,West,276,0.0,-999.0,90,-99.99,,,0.00,weatherlink.com 1.10,2013-02-25 14:05:00,
2013-02-25 06:20:00,33.5,31.0,30.23,West,276,0.0,-999.0,90,-99.99,,,0.00,weatherlink.com 1.10,2013-02-25 14:20:00,
2013-02-25 06:35:00,33.8,31.0,30.23,West,276,0.0,-999.0,90,-99.99,,,0.00,weatherlink.com 1.10,2013-02-25 14:35:00,
2013-02-25 06:50:00,33.7,31.0,30.24,West,276,0.0,-999.0,90,-99.99,,,0.00,weatherlink.com 1.10,2013-02-25 14:50:00,
2013-02-25 07:04:00,33.4,31.0,30.23,West,276,0.0,-999.0,90,-99.99,,,0.00,weatherlink.com 1.10,2013-02-25 15:04:00,
2013-02-25 07:19:00,33.4,31.0,30.24,West,276,0.0,-999.0,90,-99.99,,,0.00,weatherlink.com 1.10,2013-02-25 15:19:00,
2013-02-25 07:34:00,33.7,31.0,30.24,West,276,0.0,-999.0,90,-99.99,,,0.00,weatherlink.com 1.10,2013-02-25 15:34:00,
2013-02-25 07:49:00,34.9,33.0,30.23,West,276,0.0,-999.0,91,-99.99,,,0.00,weatherlink.com 1.10,2013-02-25 15:49:00,
2013-02-25 08:04:00,36.2,34.0,30.23,West,276,0.0,-999.0,92,-99.99,,,0.00,weatherlink.com 1.10,2013-02-25 16:04:00,
2013-02-25 08:19:00,38.3,36.0,30.24,West,276,0.0,-999.0,91,-99.99,,,0.00,weatherlink.com 1.10,2013-02-25 16:19:00,
2013-02-25 08:34:00,40.6,38.0,30.23,West,276,0.0,-999.0,89,-99.99,,,0.00,weatherlink.com 1.10,2013-02-25 16:34:00,
2013-02-25 08:49:00,42.8,38.0,30.23,West,276,0.0,-999.0,84,-99.99,,,0.00,weatherlink.com 1.10,2013-02-25 16:49:00,
2013-02-25 09:05:00,45.5,38.0,30.23,NE,49,0.0,-999.0,76,-99.99,,,0.00,weatherlink.com 1.10,2013-02-25 17:05:00,
2013-02-25 09:20:00,48.0,38.0,30.22,NNE,25,2.0,-999.0,68,-99.99,,,0.00,weatherlink.com 1.10,2013-02-25 17:20:00,
2013-02-25 09:35:00,50.1,39.0,30.22,WNW,300,0.0,-999.0,66,-99.99,,,0.00,weatherlink.com 1.10,2013-02-25 17:35:00,
2013-02-25 10:05:00,53.1,38.0,30.21,NNE,28,1.0,-999.0,57,-99.99,,,0.00,weatherlink.com 1.10,2013-02-25 18:05:00,
2013-02-25 10:20:00,55.1,39.0,30.22,NNE,28,0.0,-999.0,54,-99.99,,,0.00,weatherlink.com 1.10,2013-02-25 18:20:00,
2013-02-25 10:35:00,56.3,39.0,30.21,NNE,25,0.0,-999.0,53,-99.99,,,0.00,weatherlink.com 1.10,2013-02-25 18:35:00,
2013-02-25 10:50:00,57.5,40.0,30.21,North,350,3.0,-999.0,53,-99.99,,,0.00,weatherlink.com 1.10,2013-02-25 18:50:00,
2013-02-25 11:05:00,58.1,40.0,30.20,North,5,0.0,-999.0,51,-99.99,,,0.00,weatherlink.com 1.10,2013-02-25 19:05:00,
2013-02-25 11:20:00,59.3,40.0,30.20,North,360,0.0,-999.0,49,-99.99,,,0.00,weatherlink.com 1.10,2013-02-25 19:20:00,
2013-02-25 11:35:00,60.5,40.0,30.20,NE,36,3.0,-999.0,47,-99.99,,,0.00,weatherlink.com 1.10,2013-02-25 19:35:00,
2013-02-25 11:50:00,61.5,41.0,30.20,NNE,22,3.0,-999.0,47,-99.99,,,0.00,weatherlink.com 1.10,2013-02-25 19:50:00,
2013-02-25 12:05:00,62.4,41.0,30.19,North,355,0.0,-999.0,46,-99.99,,,0.00,weatherlink.com 1.10,2013-02-25 20:05:00,
2013-02-25 12:20:00,63.2,41.0,30.18,NE,36,2.0,-999.0,44,-99.99,,,0.00,weatherlink.com 1.10,2013-02-25 20:20:00,
2013-02-25 12:35:00,64.2,41.0,30.18,NNE,13,0.0,-999.0,43,-99.99,,,0.00,weatherlink.com 1.10,2013-02-25 20:35:00,
2013-02-25 12:50:00,65.3,40.0,30.17,North,355,2.0,-999.0,40,-99.99,,,0.00,weatherlink.com 1.10,2013-02-25 20:50:00,
2013-02-25 13:06:00,66.0,39.0,30.16,NW,309,3.0,-999.0,37,-99.99,,,0.00,weatherlink.com 1.10,2013-02-25 21:06:00,
2013-02-25 13:21:00,66.8,38.0,30.17,NNE,24,0.0,-999.0,35,-99.99,,,0.00,weatherlink.com 1.10,2013-02-25 21:21:00,
2013-02-25 13:36:00,67.8,37.0,30.15,WNW,284,0.0,-999.0,32,-99.99,,,0.00,weatherlink.com 1.10,2013-02-25 21:36:00,
2013-02-25 13:51:00,68.1,39.0,30.15,NW,321,0.0,-999.0,34,-99.99,,,0.00,weatherlink.com 1.10,2013-02-25 21:51:00,
2013-02-25 14:06:00,68.3,34.0,30.15,WNW,289,0.0,-999.0,28,-99.99,,,0.00,weatherlink.com 1.10,2013-02-25 22:06:00,
2013-02-25 14:21:00,69.3,34.0,30.15,SSE,150,2.0,-999.0,27,-99.99,,,0.00,weatherlink.com 1.10,2013-02-25 22:21:00,
2013-02-25 14:36:00,69.8,32.0,30.15,WNW,289,0.0,-999.0,25,-99.99,,,0.00,weatherlink.com 1.10,2013-02-25 22:36:00,
2013-02-25 14:51:00,69.6,35.0,30.15,NW,321,0.0,-999.0,28,-99.99,,,0.00,weatherlink.com 1.10,2013-02-25 22:51:00,
2013-02-25 15:06:00,70.3,33.0,30.14,WSW,237,0.0,-999.0,25,-99.99,,,0.00,weatherlink.com 1.10,2013-02-25 23:06:00,
2013-02-25 15:21:00,70.1,33.0,30.14,WSW,257,0.0,-999.0,25,-99.99,,,0.00,weatherlink.com 1.10,2013-02-25 23:21:00,
2013-02-25 15:36:00,70.6,34.0,30.13,NNE,17,0.0,-999.0,26,-99.99,,,0.00,weatherlink.com 1.10,2013-02-25 23:36:00,
2013-02-25 15:51:00,70.6,32.0,30.12,East,92,1.0,-999.0,24,-99.99,,,0.00,weatherlink.com 1.10,2013-02-25 23:51:00,
2013-02-25 16:06:00,68.9,32.0,30.13,ESE,107,0.0,-999.0,25,-99.99,,,0.00,weatherlink.com 1.10,2013-02-26 00:06:00,
2013-02-25 16:21:00,67.6,30.0,30.13,SE,140,3.0,-999.0,25,-99.99,,,0.00,weatherlink.com 1.10,2013-02-26 00:21:00,
2013-02-25 16:36:00,67.3,31.0,30.13,SSE,159,0.0,-999.0,26,-99.99,,,0.00,weatherlink.com 1.10,2013-02-26 00:36:00,
2013-02-25 16:51:00,66.3,41.0,30.12,SSE,168,5.0,-999.0,40,-99.99,,,0.00,weatherlink.com 1.10,2013-02-26 00:51:00,
2013-02-25 17:06:00,64.8,43.0,30.12,SE,138,2.0,-999.0,45,-99.99,,,0.00,weatherlink.com 1.10,2013-02-26 01:06:00,
2013-02-25 17:21:00,63.5,42.0,30.12,South,169,0.0,-999.0,46,-99.99,,,0.00,weatherlink.com 1.10,2013-02-26 01:21:00,
2013-02-25 17:37:00,62.0,41.0,30.12,South,169,0.0,-999.0,47,-99.99,,,0.00,weatherlink.com 1.10,2013-02-26 01:37:00,
2013-02-25 17:52:00,59.5,42.0,30.13,South,169,0.0,-999.0,52,-99.99,,,0.00,weatherlink.com 1.10,2013-02-26 01:52:00,
2013-02-25 18:07:00,56.9,42.0,30.14,South,169,0.0,-999.0,57,-99.99,,,0.00,weatherlink.com 1.10,2013-02-26 02:07:00,
2013-02-25 18:22:00,54.8,41.0,30.14,South,169,2.0,-999.0,61,-99.99,,,0.00,weatherlink.com 1.10,2013-02-26 02:22:00,
2013-02-25 18:37:00,52.9,42.0,30.15,SSW,194,1.0,-999.0,66,-99.99,,,0.00,weatherlink.com 1.10,2013-02-26 02:37:00,
2013-02-25 18:52:00,51.4,41.0,30.16,SSW,198,0.0,-999.0,68,-99.99,,,0.00,weatherlink.com 1.10,2013-02-26 02:52:00,
2013-02-25 19:07:00,50.7,41.0,30.16,SSW,198,0.0,-999.0,70,-99.99,,,0.00,weatherlink.com 1.10,2013-02-26 03:07:00,
2013-02-25 19:22:00,49.8,41.0,30.16,WNW,284,0.0,-999.0,71,-99.99,,,0.00,weatherlink.com 1.10,2013-02-26 03:22:00,
2013-02-25 19:37:00,49.2,41.0,30.16,WNW,284,0.0,-999.0,72,-99.99,,,0.00,weatherlink.com 1.10,2013-02-26 03:37:00,
2013-02-25 19:52:00,48.5,41.0,30.16,WNW,284,0.0,-999.0,74,-99.99,,,0.00,weatherlink.com 1.10,2013-02-26 03:52:00,
2013-02-25 20:07:00,47.6,41.0,30.17,WNW,284,0.0,-999.0,77,-99.99,,,0.00,weatherlink.com 1.10,2013-02-26 04:07:00,
2013-02-25 20:22:00,47.0,40.0,30.17,WNW,284,0.0,-999.0,78,-99.99,,,0.00,weatherlink.com 1.10,2013-02-26 04:22:00,
2013-02-25 20:37:00,46.4,40.0,30.17,WNW,284,0.0,-999.0,78,-99.99,,,0.00,weatherlink.com 1.10,2013-02-26 04:37:00,
2013-02-25 20:52:00,45.7,39.0,30.17,WNW,284,0.0,-999.0,78,-99.99,,,0.00,weatherlink.com 1.10,2013-02-26 04:52:00,
2013-02-25 21:07:00,44.8,39.0,30.18,WNW,284,0.0,-999.0,80,-99.99,,,0.00,weatherlink.com 1.10,2013-02-26 05:07:00,
2013-02-25 21:22:00,44.3,39.0,30.18,WNW,284,0.0,-999.0,81,-99.99,,,0.00,weatherlink.com 1.10,2013-02-26 05:22:00,
2013-02-25 21:37:00,43.8,39.0,30.18,WNW,284,0.0,-999.0,82,-99.99,,,0.00,weatherlink.com 1.10,2013-02-26 05:37:00,
2013-02-25 21:52:00,43.1,38.0,30.18,WNW,284,0.0,-999.0,82,-99.99,,,0.00,weatherlink.com 1.10,2013-02-26 05:52:00,
2013-02-25 22:07:00,42.3,37.0,30.18,WNW,284,0.0,-999.0,82,-99.99,,,0.00,weatherlink.com 1.10,2013-02-26 06:07:00,
2013-02-25 22:23:00,41.9,37.0,30.18,WNW,284,0.0,-999.0,83,-99.99,,,0.00,weatherlink.com 1.10,2013-02-26 06:23:00,
2013-02-25 22:38:00,41.3,37.0,30.18,WNW,284,0.0,-999.0,83,-99.99,,,0.00,weatherlink.com 1.10,2013-02-26 06:38:00,
2013-02-25 22:53:00,41.1,37.0,30.18,WNW,284,0.0,-999.0,84,-99.99,,,0.00,weatherlink.com 1.10,2013-02-26 06:53:00,
2013-02-25 23:07:00,40.9,36.0,30.18,WNW,284,0.0,-999.0,84,-99.99,,,0.00,weatherlink.com 1.10,2013-02-26 07:07:00,
2013-02-25 23:22:00,40.9,36.0,30.18,WNW,284,0.0,-999.0,84,-99.99,,,0.00,weatherlink.com 1.10,2013-02-26 07:22:00,
2013-02-25 23:37:00,40.5,36.0,30.18,WNW,284,0.0,-999.0,85,-99.99,,,0.00,weatherlink.com 1.10,2013-02-26 07:37:00,
2013-02-25 23:52:00,40.2,36.0,30.18,WNW,284,0.0,-999.0,85,-99.99,,,0.00,weatherlink.com 1.10,2013-02-26 07:52:00,